TimeEDT,TemperatureF,Dew PointF,Humidity,Sea Level PressureIn,VisibilityMPH,Wind Direction,Wind SpeedMPH,Gust SpeedMPH,PrecipitationIn,Events,Conditions,WindDirDegrees,DateUTC
12:15 AM,55.4,53.6,94,29.95,10.0,Calm,Calm,-,N/A,,Overcast,0,2013-05-07 04:15:00
12:35 AM,55.6,53.6,93,29.96,10.0,Calm,Calm,-,N/A,,Overcast,0,2013-05-07 04:35:00
12:55 AM,55.4,53.6,94,29.96,10.0,Calm,Calm,-,N/A,,Overcast,0,2013-05-07 04:55:00
1:15 AM,55.4,53.6,94,29.95,10.0,Calm,Calm,-,N/A,,Overcast,0,2013-05-07 05:15:00
1:35 AM,54.7,52.9,94,29.95,10.0,Calm,Calm,-,N/A,,Overcast,0,2013-05-07 05:35:00
1:55 AM,54.5,52.7,94,29.94,10.0,Calm,Calm,-,N/A,,Overcast,0,2013-05-07 05:55:00
2:15 AM,53.6,52.0,94,29.93,7.0,Calm,Calm,-,N/A,,Mostly Cloudy,0,2013-05-07 06:15:00
2:35 AM,53.6,52.0,94,29.93,10.0,Calm,Calm,-,N/A,,Scattered Clouds,0,2013-05-07 06:35:00
2:55 AM,52.9,51.4,95,29.92,5.0,Calm,Calm,-,N/A,,Clear,0,2013-05-07 06:55:00
3:15 AM,52.9,51.6,95,29.93,7.0,Calm,Calm,-,N/A,,Scattered Clouds,0,2013-05-07 07:15:00
3:35 AM,53.1,51.8,95,29.92,10.0,Calm,Calm,-,N/A,,Scattered Clouds,0,2013-05-07 07:35:00
3:55 AM,52.9,51.6,95,29.92,10.0,Calm,Calm,-,N/A,,Clear,0,2013-05-07 07:55:00
4:15 AM,53.2,52.0,95,29.92,10.0,Calm,Calm,-,N/A,,Clear,0,2013-05-07 08:15:00
4:35 AM,53.8,52.7,96,29.92,10.0,Calm,Calm,-,N/A,,Scattered Clouds,0,2013-05-07 08:35:00
4:55 AM,53.6,52.2,95,29.92,10.0,Calm,Calm,-,N/A,,Clear,0,2013-05-07 08:55:00
5:15 AM,52.5,51.1,95,29.92,5.0,Calm,Calm,-,N/A,,Scattered Clouds,0,2013-05-07 09:15:00
5:35 AM,53.1,51.8,95,29.92,7.0,Calm,Calm,-,N/A,,Clear,0,2013-05-07 09:35:00
5:55 AM,52.2,50.9,95,29.93,3.0,Calm,Calm,-,N/A,,Clear,0,2013-05-07 09:55:00
6:15 AM,50.4,49.3,96,29.93,0.2,Calm,Calm,-,N/A,Fog,Fog,0,2013-05-07 10:15:00
6:35 AM,50.7,49.5,95,29.94,0.5,Calm,Calm,-,N/A,Fog,Fog,0,2013-05-07 10:35:00
6:55 AM,50.4,49.3,96,29.94,0.2,Calm,Calm,-,N/A,Fog,Fog,0,2013-05-07 10:55:00
7:15 AM,50.0,48.9,96,29.94,0.2,Calm,Calm,-,N/A,Fog,Fog,0,2013-05-07 11:15:00
7:35 AM,50.7,49.6,96,29.95,1.5,Calm,Calm,-,N/A,,Mist,0,2013-05-07 11:35:00
7:55 AM,52.9,51.8,96,29.95,7.0,Calm,Calm,-,N/A,,Clear,0,2013-05-07 11:55:00
8:15 AM,54.3,53.2,96,29.95,10.0,Calm,Calm,-,N/A,,Clear,0,2013-05-07 12:15:00
8:35 AM,56.3,55.4,97,29.95,10.0,NNE,5.8,-,N/A,,Scattered Clouds,30,2013-05-07 12:35:00
8:55 AM,57.6,56.1,95,29.96,10.0,NE,5.8,-,N/A,,Scattered Clouds,50,2013-05-07 12:55:00
9:15 AM,57.6,55.2,92,29.95,10.0,NE,3.5,-,N/A,,Scattered Clouds,50,2013-05-07 13:15:00
9:35 AM,58.6,55.4,89,29.96,10.0,NE,3.5,-,N/A,,Clear,40,2013-05-07 13:35:00
9:55 AM,59.7,55.6,86,29.97,10.0,NE,4.6,-,N/A,,Clear,50,2013-05-07 13:55:00
10:15 AM,62.6,56.7,81,29.97,10.0,East,4.6,-,N/A,,Scattered Clouds,80,2013-05-07 14:15:00
10:35 AM,63.7,55.9,76,29.97,10.0,East,5.8,-,N/A,,Scattered Clouds,80,2013-05-07 14:35:00
10:55 AM,63.3,55.6,76,29.96,10.0,North,4.6,-,N/A,,Scattered Clouds,10,2013-05-07 14:55:00
11:15 AM,64.8,55.8,73,29.96,10.0,ENE,4.6,-,N/A,,Mostly Cloudy,60,2013-05-07 15:15:00
11:35 AM,66.2,56.1,70,29.96,10.0,Calm,Calm,-,N/A,,Scattered Clouds,0,2013-05-07 15:35:00
11:55 AM,66.0,55.8,69,29.96,10.0,NE,6.9,-,N/A,,Mostly Cloudy,50,2013-05-07 15:55:00
12:15 PM,67.1,55.4,66,29.95,10.0,ENE,5.8,-,N/A,,Scattered Clouds,60,2013-05-07 16:15:00
12:35 PM,66.4,55.0,67,29.95,10.0,East,3.5,-,N/A,,Mostly Cloudy,80,2013-05-07 16:35:00
12:55 PM,66.2,55.2,68,29.95,10.0,ENE,5.8,-,N/A,,Mostly Cloudy,70,2013-05-07 16:55:00
1:15 PM,65.8,55.4,69,29.94,10.0,ENE,4.6,-,N/A,,Mostly Cloudy,70,2013-05-07 17:15:00
1:35 PM,65.1,55.9,72,29.94,10.0,ENE,8.1,-,N/A,Rain,Light Rain,60,2013-05-07 17:35:00
1:55 PM,61.0,57.4,88,29.95,5.0,NE,10.4,-,N/A,Rain,Rain,50,2013-05-07 17:55:00
2:15 PM,60.8,58.1,91,29.95,10.0,ENE,8.1,-,N/A,Rain,Light Rain,60,2013-05-07 18:15:00
2:35 PM,61.0,58.1,90,29.95,10.0,NE,6.9,-,N/A,,Light Drizzle,50,2013-05-07 18:35:00
2:55 PM,62.8,58.6,86,29.94,10.0,NE,5.8,-,N/A,Rain,Light Rain,50,2013-05-07 18:55:00
3:15 PM,62.6,58.1,85,29.94,10.0,East,6.9,-,N/A,,Light Drizzle,80,2013-05-07 19:15:00
3:35 PM,63.9,58.1,81,29.94,10.0,East,8.1,-,N/A,,Mostly Cloudy,80,2013-05-07 19:35:00
3:55 PM,63.5,56.3,77,29.94,10.0,East,8.1,-,N/A,,Mostly Cloudy,80,2013-05-07 19:55:00
4:15 PM,64.8,56.8,75,29.93,10.0,ENE,9.2,16.1,N/A,,Scattered Clouds,70,2013-05-07 20:15:00
4:35 PM,66.4,56.3,70,29.93,10.0,ENE,5.8,-,N/A,,Scattered Clouds,70,2013-05-07 20:35:00
4:55 PM,64.6,55.2,72,29.92,10.0,NE,8.1,-,N/A,,Mostly Cloudy,50,2013-05-07 20:55:00
5:15 PM,65.8,56.1,71,29.92,10.0,ENE,8.1,-,N/A,,Scattered Clouds,60,2013-05-07 21:15:00
5:35 PM,66.6,55.4,67,29.91,10.0,East,10.4,-,N/A,,Scattered Clouds,90,2013-05-07 21:35:00
5:55 PM,65.7,55.9,71,29.91,10.0,NE,6.9,-,N/A,,Mostly Cloudy,50,2013-05-07 21:55:00
6:15 PM,65.5,55.0,69,29.92,10.0,NE,8.1,-,N/A,,Mostly Cloudy,50,2013-05-07 22:15:00
6:35 PM,64.9,55.2,71,29.92,10.0,NNE,8.1,-,N/A,,Mostly Cloudy,30,2013-05-07 22:35:00
6:55 PM,64.4,55.6,73,29.92,10.0,NE,6.9,-,N/A,,Scattered Clouds,40,2013-05-07 22:55:00
7:15 PM,64.0,55.4,73,29.92,10.0,North,4.6,-,N/A,,Mostly Cloudy,10,2013-05-07 23:15:00
7:35 PM,63.7,55.6,75,29.93,10.0,NNE,4.6,-,N/A,,Mostly Cloudy,20,2013-05-07 23:35:00
7:55 PM,62.6,55.8,78,29.93,10.0,NNE,3.5,-,N/A,,Light Drizzle,20,2013-05-07 23:55:00
8:15 PM,61.3,54.5,78,29.93,10.0,ENE,12.7,-,N/A,Rain,Light Rain,60,2013-05-08 00:15:00
8:35 PM,58.1,54.0,86,29.94,10.0,NE,3.5,-,N/A,,Scattered Clouds,50,2013-05-08 00:35:00
8:55 PM,56.5,53.1,88,29.94,10.0,NE,4.6,-,N/A,,Scattered Clouds,50,2013-05-08 00:55:00
9:15 PM,55.9,52.9,89,29.94,10.0,NE,3.5,-,N/A,,Clear,50,2013-05-08 01:15:00
9:35 PM,55.6,52.9,91,29.95,10.0,Calm,Calm,-,N/A,,Clear,0,2013-05-08 01:35:00
9:55 PM,54.0,51.6,92,29.95,10.0,Calm,Calm,-,N/A,,Clear,0,2013-05-08 01:55:00
10:15 PM,54.7,52.7,93,29.95,10.0,Calm,Calm,-,N/A,,Clear,0,2013-05-08 02:15:00
10:35 PM,54.0,52.2,94,29.95,10.0,Calm,Calm,-,N/A,,Clear,0,2013-05-08 02:35:00
10:55 PM,53.6,51.8,94,29.95,10.0,Calm,Calm,-,N/A,,Clear,0,2013-05-08 02:55:00
11:15 PM,52.7,50.9,94,29.95,10.0,Calm,Calm,-,N/A,,Clear,0,2013-05-08 03:15:00
11:35 PM,53.6,52.3,95,29.95,10.0,Calm,Calm,-,N/A,,Clear,0,2013-05-08 03:35:00
11:55 PM,51.3,49.8,95,29.95,3.0,Calm,Calm,-,N/A,,Clear,0,2013-05-08 03:55:00